Time;durP1;ratioP1;P1;durP2;ratioP2;P2;SDS_P1;SDS_P2;PMS_P1;PMS_P2;Temp;Humidity;BMP_temperature;BMP_pressure;BME280_temperature;BME280_humidity;BME280_pressure;Samples;Min_cycle;Max_cycle;Signal;HPM_P1;HPM_P2
2021/07/12 00:02:07;;;;;;;14.20;9.32;;;;;;;17.54;100.00;100536.50;4845271;29;20021;-89
2021/07/12 00:04:32;;;;;;;18.27;10.02;;;;;;;17.54;100.00;100533.03;4845723;29;20021;-89
2021/07/12 00:06:57;;;;;;;18.63;8.88;;;;;;;17.58;100.00;100537.19;4845351;29;20120;-89
2021/07/12 00:09:23;;;;;;;15.30;7.75;;;;;;;17.55;100.00;100532.09;4845418;29;20037;-88
2021/07/12 00:11:48;;;;;;;11.50;8.48;;;;;;;17.56;100.00;100529.41;4846574;29;20038;-88
2021/07/12 00:14:14;;;;;;;16.00;9.20;;;;;;;17.47;100.00;100532.47;4847119;29;20021;-87
2021/07/12 00:16:39;;;;;;;12.15;8.55;;;;;;;17.45;100.00;100531.69;4863067;29;20033;-88
2021/07/12 00:19:05;;;;;;;14.80;8.30;;;;;;;17.45;100.00;100543.00;4863645;29;20398;-88
2021/07/12 00:21:30;;;;;;;12.68;7.90;;;;;;;17.43;100.00;100538.78;4846152;29;20035;-88
2021/07/12 00:23:56;;;;;;;13.82;8.50;;;;;;;17.42;100.00;100537.06;4845435;29;20033;-88
2021/07/12 00:26:22;;;;;;;12.73;8.52;;;;;;;17.40;100.00;100531.06;4846406;29;20406;-88
2021/07/12 00:28:47;;;;;;;11.10;8.25;;;;;;;17.40;100.00;100531.91;4846169;29;20021;-88
2021/07/12 00:31:12;;;;;;;10.82;8.32;;;;;;;17.46;100.00;100538.66;4863514;29;20034;-87
2021/07/12 00:33:39;;;;;;;15.07;7.50;;;;;;;17.45;100.00;100535.16;4846686;29;20061;-88
2021/07/12 00:36:05;;;;;;;11.88;8.10;;;;;;;17.54;100.00;100531.25;4848562;29;20029;-87
2021/07/12 00:38:31;;;;;;;18.20;8.75;;;;;;;17.53;100.00;100536.56;4847174;29;20478;-87
2021/07/12 00:40:56;;;;;;;12.85;8.57;;;;;;;17.47;100.00;100540.34;4848093;29;20600;-88
2021/07/12 00:43:21;;;;;;;15.35;7.85;;;;;;;17.40;100.00;100539.78;4846338;29;20029;-88
2021/07/12 00:45:47;;;;;;;12.13;7.80;;;;;;;17.39;100.00;100532.81;4846634;29;20037;-88
2021/07/12 00:48:12;;;;;;;14.50;7.90;;;;;;;17.38;100.00;100530.28;4847711;29;20021;-87
2021/07/12 00:50:40;;;;;;;14.60;7.93;;;;;;;17.30;100.00;100533.25;4847982;29;20029;-87
2021/07/12 00:53:07;;;;;;;10.25;7.47;;;;;;;17.36;100.00;100535.56;4847940;29;20025;-87
2021/07/12 00:55:43;;;;;;;12.00;8.55;;;;;;;17.33;100.00;100538.34;4848901;29;20027;-88
2021/07/12 00:58:11;;;;;;;13.82;7.30;;;;;;;17.46;100.00;100541.28;4847300;29;20036;-88
2021/07/12 01:00:38;;;;;;;11.40;7.55;;;;;;;17.48;100.00;100537.63;4849153;29;20060;-88
2021/07/12 01:03:04;;;;;;;9.65;7.45;;;;;;;17.44;100.00;100538.69;4853038;29;20022;-87
2021/07/12 01:05:31;;;;;;;11.27;7.70;;;;;;;17.37;100.00;100529.44;4850368;29;20030;-88
2021/07/12 01:07:57;;;;;;;17.70;7.65;;;;;;;17.37;100.00;100541.69;4849783;29;20029;-88
2021/07/12 01:10:24;;;;;;;12.40;7.72;;;;;;;17.49;100.00;100541.13;4852210;29;20502;-88
2021/07/12 01:13:15;;;;;;;16.70;7.78;;;;;;;17.49;100.00;100536.72;4851944;29;20030;-87
2021/07/12 01:16:15;;;;;;;11.90;6.70;;;;;;;17.49;100.00;100541.13;4851552;29;20040;-87
2021/07/12 01:18:51;;;;;;;11.18;6.95;;;;;;;17.49;100.00;100538.50;4851277;29;20096;-88
2021/07/12 01:21:38;;;;;;;14.50;7.22;;;;;;;17.41;100.00;100533.59;4852838;29;20038;-87
2021/07/12 01:24:55;;;;;;;9.98;6.70;;;;;;;17.37;100.00;100528.59;4853721;29;20166;-87
2021/07/12 01:27:58;;;;;;;10.80;6.90;;;;;;;17.36;100.00;100522.47;4832709;29;20479;-87
2021/07/12 01:31:04;;;;;;;12.50;7.43;;;;;;;17.34;100.00;100523.50;4853973;29;20054;-87
2021/07/12 01:33:41;;;;;;;9.48;7.28;;;;;;;17.22;100.00;100515.25;4853941;29;20061;-87
2021/07/12 01:36:20;;;;;;;11.77;7.53;;;;;;;17.20;100.00;100518.88;4852914;29;20119;-87
2021/07/12 01:39:04;;;;;;;9.68;7.15;;;;;;;17.23;100.00;100519.56;4852138;29;20041;-87
2021/07/12 01:42:01;;;;;;;11.45;7.38;;;;;;;17.09;100.00;100518.50;4854155;29;20025;-87
2021/07/12 01:44:26;;;;;;;10.48;7.38;;;;;;;17.01;100.00;100511.00;4872334;24;20049;-86
2021/07/12 01:47:02;;;;;;;13.87;8.23;;;;;;;16.92;100.00;100511.44;4847196;29;20048;-87
2021/07/12 01:49:36;;;;;;;12.82;8.45;;;;;;;16.88;100.00;100510.72;4847235;29;20045;-86
2021/07/12 01:52:22;;;;;;;10.18;7.35;;;;;;;16.87;100.00;100513.41;4847197;29;20025;-86
2021/07/12 01:55:15;;;;;;;13.82;7.72;;;;;;;16.80;100.00;100503.19;4864014;29;20040;-86
2021/07/12 01:57:57;;;;;;;12.32;7.63;;;;;;;16.79;100.00;100511.97;4863947;29;20056;-86
2021/07/12 02:00:23;;;;;;;12.10;7.60;;;;;;;16.86;100.00;100498.59;4847323;29;20032;-86
2021/07/12 02:02:52;;;;;;;13.10;8.05;;;;;;;16.88;100.00;100494.16;4847064;29;20021;-86
2021/07/12 02:05:20;;;;;;;11.13;7.70;;;;;;;16.86;100.00;100494.22;4847324;29;20074;-87
2021/07/12 02:07:47;;;;;;;12.27;7.40;;;;;;;16.82;100.00;100483.97;4847472;29;20026;-86
2021/07/12 02:10:14;;;;;;;10.95;7.18;;;;;;;16.79;100.00;100495.41;4847250;29;20057;-86
2021/07/12 02:12:41;;;;;;;11.57;8.10;;;;;;;16.71;100.00;100481.78;4847336;29;20040;-86
2021/07/12 02:15:07;;;;;;;14.35;7.90;;;;;;;16.64;100.00;100482.97;4846726;29;20086;-86
2021/07/12 02:17:34;;;;;;;14.35;8.00;;;;;;;16.57;100.00;100485.88;4846843;29;20033;-86
2021/07/12 02:20:01;;;;;;;10.10;7.68;;;;;;;16.56;100.00;100480.69;4847430;29;20116;-86
2021/07/12 02:22:28;;;;;;;10.73;7.82;;;;;;;16.55;100.00;100485.06;4846727;29;20470;-86
2021/07/12 02:24:56;;;;;;;10.98;7.63;;;;;;;16.43;100.00;100477.75;4846494;29;20080;-86
2021/07/12 02:27:23;;;;;;;13.35;8.10;;;;;;;16.37;100.00;100480.66;4863182;29;20108;-86
2021/07/12 02:29:50;;;;;;;15.30;7.85;;;;;;;16.34;100.00;100480.78;4846928;29;20060;-86
2021/07/12 02:32:19;;;;;;;11.85;8.27;;;;;;;16.40;100.00;100472.66;4847281;29;20026;-86
2021/07/12 02:34:45;;;;;;;12.40;7.93;;;;;;;16.38;100.00;100484.09;4846684;29;20035;-86
2021/07/12 02:37:12;;;;;;;10.48;7.07;;;;;;;16.37;100.00;100471.94;4846385;29;20033;-86
2021/07/12 02:39:39;;;;;;;11.05;7.38;;;;;;;16.32;100.00;100467.78;4846566;29;20486;-86
2021/07/12 02:42:05;;;;;;;12.50;7.95;;;;;;;16.41;100.00;100474.38;4846519;29;20025;-86
2021/07/12 02:44:34;;;;;;;12.68;7.82;;;;;;;16.38;100.00;100465.78;4862937;29;20037;-86
2021/07/12 02:46:59;;;;;;;10.15;7.90;;;;;;;16.37;100.00;100469.31;4847176;29;20029;-85
2021/07/12 02:49:24;;;;;;;10.13;7.85;;;;;;;16.34;100.00;100468.53;4846284;29;20025;-86
2021/07/12 02:51:55;;;;;;;12.13;7.43;;;;;;;16.30;100.00;100471.38;4862677;29;20030;-86
2021/07/12 02:54:27;;;;;;;10.25;7.60;;;;;;;16.34;100.00;100465.06;4846026;29;20025;-86
2021/07/12 02:56:52;;;;;;;12.90;7.65;;;;;;;16.38;100.00;100455.31;4846079;29;20478;-86
2021/07/12 02:59:18;;;;;;;13.63;7.47;;;;;;;16.26;100.00;100454.09;4846445;29;20032;-86
2021/07/12 03:01:43;;;;;;;13.50;8.63;;;;;;;16.20;100.00;100457.00;4862880;29;20471;-86
2021/07/12 03:04:08;;;;;;;9.55;7.88;;;;;;;16.25;100.00;100449.75;4845858;29;20109;-86
2021/07/12 03:06:34;;;;;;;12.57;7.53;;;;;;;16.27;100.00;100454.03;4862542;29;20402;-86
2021/07/12 03:09:08;;;;;;;13.38;7.85;;;;;;;16.26;100.00;100446.25;4862497;29;20038;-86
2021/07/12 03:11:48;;;;;;;10.32;7.80;;;;;;;16.24;100.00;100451.53;4845875;29;20056;-86
2021/07/12 03:14:20;;;;;;;12.27;7.65;;;;;;;16.24;100.00;100450.69;4846411;29;20025;-86
2021/07/12 03:16:48;;;;;;;12.23;8.05;;;;;;;16.22;100.00;100452.50;4845741;29;20032;-86
2021/07/12 03:19:21;;;;;;;11.48;8.07;;;;;;;16.23;100.00;100451.63;4845638;29;20029;-86
2021/07/12 03:21:48;;;;;;;11.50;7.63;;;;;;;16.23;100.00;100454.25;4862458;29;20040;-86
2021/07/12 03:24:16;;;;;;;11.27;8.48;;;;;;;16.28;100.00;100447.00;4861464;29;20029;-86
2021/07/12 03:26:44;;;;;;;11.98;8.20;;;;;;;16.31;100.00;100454.72;4862257;29;20062;-86
2021/07/12 03:29:12;;;;;;;12.15;7.47;;;;;;;16.29;100.00;100444.34;4846312;29;20072;-86
2021/07/12 03:31:38;;;;;;;13.25;8.20;;;;;;;16.27;100.00;100440.94;4845438;29;20021;-86
2021/07/12 03:34:04;;;;;;;10.73;7.60;;;;;;;16.28;100.00;100442.63;4845363;29;20029;-86
2021/07/12 03:36:30;;;;;;;18.08;8.38;;;;;;;16.30;100.00;100447.81;4845378;29;20037;-86
2021/07/12 03:38:56;;;;;;;11.45;8.02;;;;;;;16.32;100.00;100444.22;4845461;29;20033;-86
2021/07/12 03:41:22;;;;;;;12.70;7.68;;;;;;;16.36;100.00;100444.06;4861933;29;20096;-86
2021/07/12 03:43:47;;;;;;;13.00;8.10;;;;;;;16.34;100.00;100447.59;4845209;29;20108;-86
2021/07/12 03:46:12;;;;;;;9.90;8.10;;;;;;;16.36;100.00;100444.06;4845246;29;20029;-86
2021/07/12 03:48:40;;;;;;;10.18;7.22;;;;;;;16.34;100.00;100437.13;4845464;29;20064;-86
2021/07/12 03:51:08;;;;;;;10.43;7.88;;;;;;;16.40;100.00;100443.03;4845582;29;20030;-86
2021/07/12 03:53:34;;;;;;;14.05;8.00;;;;;;;16.39;100.00;100444.78;4845014;29;20026;-86
2021/07/12 03:56:00;;;;;;;11.05;7.47;;;;;;;16.40;100.00;100441.25;4845221;29;20457;-86
2021/07/12 03:58:26;;;;;;;10.75;7.40;;;;;;;16.44;100.00;100447.19;4845015;29;20029;-86
2021/07/12 04:00:52;;;;;;;10.20;7.30;;;;;;;16.45;100.00;100435.81;4845269;29;20371;-86
2021/07/12 04:03:17;;;;;;;13.82;7.47;;;;;;;16.48;100.00;100436.53;4845609;29;20081;-86
2021/07/12 04:05:42;;;;;;;10.20;7.30;;;;;;;16.49;100.00;100438.22;4845448;29;20022;-86
2021/07/12 04:08:08;;;;;;;16.33;7.88;;;;;;;16.53;100.00;100439.81;4844949;29;20086;-86
2021/07/12 04:10:33;;;;;;;11.10;7.70;;;;;;;16.54;100.00;100433.63;4844940;29;20410;-87
2021/07/12 04:12:58;;;;;;;13.02;7.45;;;;;;;16.58;100.00;100434.34;4845319;29;20030;-86
2021/07/12 04:15:24;;;;;;;8.63;7.20;;;;;;;16.60;100.00;100426.44;4844899;29;20345;-86
2021/07/12 04:17:49;;;;;;;10.98;7.25;;;;;;;16.63;100.00;100429.75;4844933;29;20075;-86
2021/07/12 04:20:15;;;;;;;9.68;7.43;;;;;;;16.66;100.00;100434.84;4845023;29;20116;-86
2021/07/12 04:22:42;;;;;;;12.38;7.43;;;;;;;16.67;100.00;100430.47;4845018;29;20029;-86
2021/07/12 04:25:08;;;;;;;11.13;8.15;;;;;;;16.68;100.00;100430.38;4861222;29;20021;-86
2021/07/12 04:27:34;;;;;;;11.13;7.97;;;;;;;16.72;100.00;100434.56;4844573;29;20025;-86
2021/07/12 04:29:59;;;;;;;12.10;7.53;;;;;;;16.75;100.00;100437.09;4844988;29;20091;-86
2021/07/12 04:32:24;;;;;;;8.48;7.10;;;;;;;16.78;100.00;100429.09;4861227;29;20440;-86
2021/07/12 04:34:50;;;;;;;9.95;7.25;;;;;;;16.85;100.00;100431.44;4844915;29;20444;-86
2021/07/12 04:37:15;;;;;;;11.15;7.00;;;;;;;16.88;100.00;100428.66;4845523;29;20120;-86
2021/07/12 04:39:40;;;;;;;15.02;8.82;;;;;;;16.91;100.00;100426.75;4844745;29;20032;-87
2021/07/12 04:42:05;;;;;;;10.27;7.13;;;;;;;16.95;100.00;100422.22;4844872;29;20033;-86
2021/07/12 04:44:31;;;;;;;10.60;7.10;;;;;;;17.03;100.00;100433.19;4844761;29;20037;-86
2021/07/12 04:47:00;;;;;;;10.35;7.20;;;;;;;16.98;100.00;100435.16;4845167;29;20044;-86
2021/07/12 04:49:26;;;;;;;14.65;7.55;;;;;;;17.03;100.00;100436.66;4844517;29;20063;-86
2021/07/12 04:51:52;;;;;;;9.88;7.43;;;;;;;17.07;100.00;100432.13;4845123;29;20022;-86
2021/07/12 04:54:17;;;;;;;16.23;8.10;;;;;;;17.15;100.00;100440.47;4844316;29;20117;-87
2021/07/12 04:56:42;;;;;;;10.13;6.97;;;;;;;17.16;100.00;100422.97;4861284;29;20030;-87
2021/07/12 04:59:10;;;;;;;15.90;7.60;;;;;;;17.20;100.00;100424.50;4844372;29;20068;-87
2021/07/12 05:01:35;;;;;;;9.82;6.97;;;;;;;17.20;100.00;100416.66;4844527;29;20029;-86
2021/07/12 05:04:02;;;;;;;13.40;7.05;;;;;;;17.37;100.00;100426.34;4844646;29;20085;-86
2021/07/12 05:06:28;;;;;;;11.60;7.13;;;;;;;17.99;100.00;100416.28;4844351;29;20029;-86
2021/07/12 05:08:54;;;;;;;10.15;6.40;;;;;;;18.32;100.00;100416.31;4844731;29;20029;-86
2021/07/12 05:11:19;;;;;;;11.25;6.90;;;;;;;18.62;100.00;100414.66;4844444;29;20112;-86
2021/07/12 05:13:45;;;;;;;10.77;6.90;;;;;;;19.18;100.00;100409.88;4844666;29;20081;-86
2021/07/12 05:16:11;;;;;;;8.55;6.20;;;;;;;18.91;100.00;100414.06;4844346;29;20502;-87
2021/07/12 05:18:38;;;;;;;11.48;6.78;;;;;;;19.38;100.00;100416.63;4844350;29;20045;-86
2021/07/12 05:21:03;;;;;;;8.45;5.93;;;;;;;19.43;100.00;100411.97;4844269;29;20030;-86
2021/07/12 05:23:29;;;;;;;11.10;7.18;;;;;;;19.39;100.00;100415.69;4844206;29;20017;-85
2021/07/12 05:25:55;;;;;;;12.52;6.07;;;;;;;19.61;100.00;100411.81;4844362;29;20036;-85
2021/07/12 05:28:21;;;;;;;11.95;6.40;;;;;;;19.62;100.00;100408.28;4844543;29;20487;-85
2021/07/12 05:30:47;;;;;;;10.45;6.65;;;;;;;19.39;100.00;100412.22;4844658;29;20040;-85
2021/07/12 05:33:12;;;;;;;8.23;6.05;;;;;;;19.52;100.00;100416.69;4844395;29;20400;-85
2021/07/12 05:35:37;;;;;;;9.48;6.60;;;;;;;19.63;100.00;100415.22;4844249;29;20029;-86
2021/07/12 05:38:07;;;;;;;10.77;7.30;;;;;;;19.73;100.00;100421.66;4844909;29;20026;-85
2021/07/12 05:40:33;;;;;;;10.63;6.40;;;;;;;19.65;100.00;100408.13;4845239;29;20056;-84
2021/07/12 05:42:58;;;;;;;15.85;6.55;;;;;;;20.21;100.00;100410.00;4845147;29;20037;-84
2021/07/12 05:45:23;;;;;;;10.23;6.82;;;;;;;20.32;100.00;100409.38;4844545;29;20045;-85
2021/07/12 05:47:48;;;;;;;13.70;6.63;;;;;;;20.36;100.00;100412.66;4864185;29;20387;-86
2021/07/12 05:50:19;;;;;;;9.35;6.30;;;;;;;20.25;100.00;100402.75;4847552;29;20051;-86
2021/07/12 05:52:45;;;;;;;9.85;5.85;;;;;;;20.48;100.00;100406.63;4864697;29;20033;-86
2021/07/12 05:55:11;;;;;;;11.85;6.57;;;;;;;20.66;100.00;100412.56;4847945;29;20029;-86
2021/07/12 05:57:37;;;;;;;13.60;6.28;;;;;;;21.26;100.00;100417.50;4847993;29;20040;-85
2021/07/12 06:00:07;;;;;;;9.25;6.03;;;;;;;21.67;100.00;100408.66;4847341;29;20030;-85
2021/07/12 06:02:32;;;;;;;11.52;6.85;;;;;;;21.09;99.71;100409.81;4865102;29;20060;-84
2021/07/12 06:04:58;;;;;;;10.10;6.57;;;;;;;21.45;99.48;100409.25;4864000;29;20029;-84
2021/07/12 06:07:23;;;;;;;10.73;6.75;;;;;;;21.36;99.07;100413.34;4847290;29;20269;-84
2021/07/12 06:09:48;;;;;;;8.55;6.57;;;;;;;21.22;97.23;100409.91;4847249;29;20028;-84
2021/07/12 06:12:14;;;;;;;9.75;5.82;;;;;;;22.16;95.11;100407.13;4863997;29;20055;-84
2021/07/12 06:14:39;;;;;;;8.13;6.05;;;;;;;21.70;96.31;100412.91;4847157;29;20025;-85
2021/07/12 06:17:04;;;;;;;9.05;6.00;;;;;;;21.73;95.79;100408.25;4847193;29;20039;-84
2021/07/12 06:19:30;;;;;;;11.82;6.63;;;;;;;21.38;98.45;100410.63;4863443;29;20032;-85
2021/07/12 06:21:55;;;;;;;7.70;6.00;;;;;;;21.70;95.57;100416.38;4847015;29;20061;-84
2021/07/12 06:24:20;;;;;;;9.13;6.15;;;;;;;21.09;96.78;100418.59;4846934;29;20282;-84
2021/07/12 06:26:46;;;;;;;8.30;6.18;;;;;;;21.11;98.17;100415.84;4846826;29;20044;-84
2021/07/12 06:29:11;;;;;;;12.85;6.93;;;;;;;21.32;97.35;100406.53;4847272;29;20034;-84
2021/07/12 06:31:36;;;;;;;8.30;6.20;;;;;;;22.10;95.56;100403.13;4847066;29;20033;-84
2021/07/12 06:34:02;;;;;;;9.30;6.50;;;;;;;21.67;96.58;100403.38;4846549;29;20029;-85
2021/07/12 06:36:27;;;;;;;12.13;6.70;;;;;;;21.64;94.93;100405.41;4863393;29;20029;-84
2021/07/12 06:38:52;;;;;;;11.43;5.97;;;;;;;21.24;96.17;100395.63;4846741;29;20025;-84
2021/07/12 06:41:18;;;;;;;9.88;6.28;;;;;;;21.62;97.50;100400.22;4846625;29;20363;-84
2021/07/12 06:43:43;;;;;;;12.55;6.95;;;;;;;21.43;95.48;100397.97;4846606;29;20037;-84
2021/07/12 06:46:09;;;;;;;9.73;5.97;;;;;;;21.88;93.21;100384.41;4864630;29;20040;-83
2021/07/12 06:48:34;;;;;;;10.25;6.47;;;;;;;21.28;96.09;100398.94;4848527;29;20025;-83
2021/07/12 06:50:59;;;;;;;10.45;6.50;;;;;;;21.72;94.49;100398.66;4848055;29;20049;-83
2021/07/12 06:53:25;;;;;;;8.70;5.78;;;;;;;21.58;95.13;100398.72;4847550;29;20132;-84
2021/07/12 06:55:50;;;;;;;9.10;6.13;;;;;;;21.49;95.35;100391.41;4864397;29;20033;-83
2021/07/12 06:58:15;;;;;;;8.18;5.90;;;;;;;21.59;92.20;100393.34;4864379;29;20620;-83
2021/07/12 07:00:41;;;;;;;10.63;6.63;;;;;;;21.35;94.60;100392.31;4848308;29;20496;-83
2021/07/12 07:03:10;;;;;;;10.18;6.65;;;;;;;21.95;93.92;100386.56;4865150;29;20037;-83
2021/07/12 07:05:38;;;;;;;9.63;7.00;;;;;;;22.95;89.89;100387.50;4849261;29;20398;-82
2021/07/12 07:08:04;;;;;;;10.73;6.63;;;;;;;22.63;90.81;100384.47;4849219;29;20034;-83
2021/07/12 07:10:29;;;;;;;10.50;6.22;;;;;;;22.57;90.43;100383.13;4849692;29;20025;-83
2021/07/12 07:12:55;;;;;;;8.70;7.07;;;;;;;23.52;88.48;100385.94;4866609;29;20027;-83
2021/07/12 07:15:20;;;;;;;10.30;6.93;;;;;;;22.92;87.88;100379.75;4865215;29;20095;-83
2021/07/12 07:17:46;;;;;;;8.50;5.57;;;;;;;23.27;85.65;100378.97;4848206;29;20044;-84
2021/07/12 07:20:14;;;;;;;9.55;6.55;;;;;;;22.72;86.78;100375.88;4847514;29;20045;-84
2021/07/12 07:22:39;;;;;;;9.07;6.40;;;;;;;22.76;87.03;100390.59;4847599;29;20077;-84
2021/07/12 07:25:14;;;;;;;9.00;7.13;;;;;;;22.68;87.62;100377.91;4847190;29;20514;-84
2021/07/12 07:27:45;;;;;;;8.23;6.13;;;;;;;22.48;87.07;100386.44;4864961;29;20043;-84
2021/07/12 07:30:12;;;;;;;11.35;6.95;;;;;;;23.05;87.35;100377.91;4847977;29;20032;-84
2021/07/12 07:33:08;;;;;;;10.07;7.38;;;;;;;23.32;85.67;100368.91;4848005;29;20028;-84
2021/07/12 07:35:33;;;;;;;10.18;6.95;;;;;;;23.37;83.65;100364.97;4849398;29;20033;-83
2021/07/12 07:41:28;;;;;;;7.97;6.05;;;;;;;24.03;81.49;100365.25;4866233;29;20080;-83
2021/07/12 07:43:53;;;;;;;9.75;6.13;;;;;;;23.13;85.52;100356.22;4849803;29;20050;-82
2021/07/12 07:46:24;;;;;;;9.20;5.93;;;;;;;23.88;85.11;100356.69;4850687;29;20033;-83
2021/07/12 07:48:52;;;;;;;11.25;6.85;;;;;;;24.09;85.74;100350.69;4867064;29;20060;-83
2021/07/12 07:51:20;;;;;;;9.35;6.40;;;;;;;23.60;82.62;100354.44;4866027;29;20030;-83
2021/07/12 07:53:48;;;;;;;14.38;6.75;;;;;;;24.23;81.17;100352.25;4848776;29;20460;-83
2021/07/12 07:56:14;;;;;;;8.93;6.13;;;;;;;23.93;78.67;100356.34;4850101;29;20458;-83
2021/07/12 07:58:39;;;;;;;9.65;7.03;;;;;;;24.28;79.67;100358.88;4848029;29;20026;-83
2021/07/12 08:01:04;;;;;;;10.40;6.18;;;;;;;24.39;78.87;100349.25;4849457;29;20502;-84
2021/07/12 08:03:30;;;;;;;11.93;6.28;;;;;;;24.64;75.86;100356.13;4866731;29;20113;-83
2021/07/12 08:05:55;;;;;;;11.23;6.43;;;;;;;25.18;77.71;100361.41;4848102;29;20497;-84
2021/07/12 08:08:23;;;;;;;11.27;6.43;;;;;;;24.62;75.41;100358.03;4847027;29;20429;-84
2021/07/12 08:10:48;;;;;;;11.13;7.65;;;;;;;24.68;78.08;100363.69;4864811;29;20643;-83
2021/07/12 08:13:16;;;;;;;14.00;7.65;;;;;;;25.42;74.97;100363.00;4848397;29;20026;-83
2021/07/12 08:15:42;;;;;;;9.43;5.85;;;;;;;24.09;78.31;100364.78;4849595;29;20582;-81
2021/07/12 08:18:09;;;;;;;8.02;5.95;;;;;;;25.27;74.15;100363.28;4849949;29;20057;-80
2021/07/12 08:20:35;;;;;;;10.05;5.47;;;;;;;25.35;74.45;100370.63;4850153;29;20025;-80
2021/07/12 08:23:00;;;;;;;10.07;5.63;;;;;;;24.91;75.39;100369.81;4868788;29;20034;-80
2021/07/12 08:25:25;;;;;;;13.90;5.63;;;;;;;24.87;78.62;100359.53;4850790;29;20029;-80
2021/07/12 08:27:51;;;;;;;8.17;6.27;;;;;;;25.01;72.26;100367.22;4869294;29;20065;-81
2021/07/12 08:30:18;;;;;;;10.75;5.63;;;;;;;25.18;73.23;100360.56;4851436;29;20704;-84
2021/07/12 08:32:45;;;;;;;8.77;5.22;;;;;;;26.21;70.65;100362.50;4849452;29;20036;-82
2021/07/12 08:35:12;;;;;;;8.30;4.90;;;;;;;25.90;70.52;100367.81;4868763;29;20390;-82
2021/07/12 08:37:37;;;;;;;9.95;6.20;;;;;;;25.25;70.66;100359.94;4889725;23;20045;-82
2021/07/12 08:40:05;;;;;;;8.60;5.97;;;;;;;25.47;70.59;100361.63;4849646;29;20043;-83
2021/07/12 08:42:30;;;;;;;9.50;5.25;;;;;;;25.66;70.00;100357.44;4848465;29;20052;-80
2021/07/12 08:44:56;;;;;;;8.07;5.50;;;;;;;26.68;68.36;100355.69;4848755;29;20033;-81
2021/07/12 08:47:21;;;;;;;10.02;5.15;;;;;;;25.58;69.86;100357.22;4849013;29;20060;-80
2021/07/12 08:49:47;;;;;;;11.43;5.95;;;;;;;25.87;67.46;100357.47;4850636;29;20036;-82
2021/07/12 08:52:12;;;;;;;9.20;5.63;;;;;;;25.81;69.11;100348.19;4847370;29;20033;-82
2021/07/12 08:54:39;;;;;;;12.23;5.50;;;;;;;25.51;71.20;100361.38;4865310;29;20200;-87
2021/07/12 08:57:05;;;;;;;9.90;5.68;;;;;;;26.32;67.76;100360.56;4863974;29;20032;-87
2021/07/12 08:59:35;;;;;;;9.20;5.10;;;;;;;26.06;68.58;100359.38;4846173;29;20030;-84
2021/07/12 09:02:08;;;;;;;6.78;4.38;;;;;;;25.20;68.15;100355.97;4861410;29;20021;-85
2021/07/12 09:04:35;;;;;;;10.18;5.57;;;;;;;25.84;67.46;100352.41;4861295;29;20029;-86
2021/07/12 09:07:09;;;;;;;9.07;5.88;;;;;;;25.83;67.88;100351.56;4846769;29;20081;-83
2021/07/12 09:09:35;;;;;;;10.63;5.57;;;;;;;25.72;71.25;100346.28;4863133;29;20049;-82
2021/07/12 09:12:15;;;;;;;7.80;4.97;;;;;;;25.94;70.33;100358.59;4863329;29;20108;-83
2021/07/12 09:14:59;;;;;;;7.25;4.70;;;;;;;24.92;72.48;100344.09;4847245;29;20146;-85
2021/07/12 09:17:30;;;;;;;9.23;4.72;;;;;;;24.08;76.99;100351.66;4862435;29;20037;-85
2021/07/12 09:19:55;;;;;;;7.72;4.63;;;;;;;25.16;69.93;100342.13;4844335;29;20033;-85
2021/07/12 09:22:21;;;;;;;8.18;4.40;;;;;;;26.32;64.09;100347.28;4849375;29;20036;-83
2021/07/12 09:24:55;;;;;;;8.48;5.22;;;;;;;25.81;66.08;100342.88;4865629;29;20025;-82
2021/07/12 09:27:26;;;;;;;6.85;4.45;;;;;;;26.26;63.19;100346.97;4866069;29;20025;-78
2021/07/12 09:29:54;;;;;;;6.93;3.90;;;;;;;26.96;60.96;100345.22;4866269;29;20029;-80
2021/07/12 09:32:22;;;;;;;9.70;3.88;;;;;;;26.80;62.66;100343.94;4848484;29;20040;-81
2021/07/12 09:34:48;;;;;;;7.47;4.40;;;;;;;27.50;60.41;100333.19;4866133;29;20036;-83
2021/07/12 09:37:17;;;;;;;9.57;4.65;;;;;;;27.02;60.37;100331.34;4850257;29;20033;-83
2021/07/12 09:39:44;;;;;;;7.18;4.22;;;;;;;26.08;64.97;100338.81;4849212;29;20029;-83
2021/07/12 09:42:17;;;;;;;10.10;4.22;;;;;;;25.67;66.95;100335.19;4850619;29;20120;-82
2021/07/12 09:44:46;;;;;;;9.60;4.55;;;;;;;25.57;68.58;100327.16;4867580;29;20475;-82
2021/07/12 09:47:19;;;;;;;6.32;4.18;;;;;;;26.36;65.63;100332.75;4866629;29;20065;-78
2021/07/12 09:49:46;;;;;;;12.23;4.78;;;;;;;26.77;65.01;100330.91;4849607;29;20025;-82
2021/07/12 09:52:14;;;;;;;9.77;4.57;;;;;;;26.46;62.80;100327.47;4866476;29;20529;-82
2021/07/12 09:54:41;;;;;;;7.63;4.93;;;;;;;25.61;69.44;100325.09;4866188;29;20486;-83
2021/07/12 09:57:16;;;;;;;10.77;4.85;;;;;;;26.00;67.67;100323.53;4866124;29;20036;-84
2021/07/12 09:59:56;;;;;;;8.00;4.68;;;;;;;25.62;67.47;100316.16;4848993;29;20026;-83
2021/07/12 10:02:23;;;;;;;9.20;4.70;;;;;;;27.02;63.65;100313.56;4849386;29;20029;-83
2021/07/12 10:04:53;;;;;;;8.15;5.18;;;;;;;26.34;69.42;100315.25;4849761;29;20033;-83
2021/07/12 10:07:18;;;;;;;8.30;4.43;;;;;;;26.61;68.06;100322.63;4849399;29;20034;-83
2021/07/12 10:09:44;;;;;;;9.00;5.13;;;;;;;26.13;66.13;100312.66;4867666;29;20033;-83
2021/07/12 10:12:10;;;;;;;9.30;5.20;;;;;;;24.96;71.77;100303.91;4867563;29;20038;-83
2021/07/12 10:14:37;;;;;;;10.88;4.88;;;;;;;25.35;70.39;100306.91;4850708;29;20081;-82
2021/07/12 10:17:07;;;;;;;7.25;4.63;;;;;;;25.97;70.93;100304.34;4850429;29;20032;-83
2021/07/12 10:19:32;;;;;;;6.70;4.43;;;;;;;26.03;68.12;100298.50;4867784;29;20102;-82
2021/07/12 10:21:57;;;;;;;7.80;4.00;;;;;;;26.42;68.66;100294.16;4867862;29;20470;-83
2021/07/12 10:24:27;;;;;;;9.70;5.20;;;;;;;26.51;64.97;100305.78;4868462;29;20063;-82
2021/07/12 10:27:00;;;;;;;9.07;4.95;;;;;;;26.46;64.49;100295.53;4869608;29;20029;-82
2021/07/12 10:29:36;;;;;;;9.57;5.15;;;;;;;27.37;60.57;100284.69;4868794;29;20107;-82
2021/07/12 10:32:22;;;;;;;10.02;4.97;;;;;;;26.87;64.47;100288.34;4870234;29;20048;-83
2021/07/12 10:34:49;;;;;;;16.85;5.30;;;;;;;26.64;63.36;100285.13;4869387;29;20049;-82
2021/07/12 10:37:18;;;;;;;10.70;5.50;;;;;;;27.35;61.01;100276.00;4869963;29;20116;-82
2021/07/12 10:40:13;;;;;;;8.77;4.93;;;;;;;26.53;64.91;100278.09;4870535;29;20368;-83
2021/07/12 10:42:41;;;;;;;8.13;4.65;;;;;;;26.14;65.81;100282.47;4867559;29;20034;-83
2021/07/12 10:45:22;;;;;;;8.93;5.30;;;;;;;25.07;70.15;100270.34;4868622;29;20060;-82
2021/07/12 10:47:56;;;;;;;7.32;5.10;;;;;;;25.21;73.01;100272.69;4867492;29;20390;-82
2021/07/12 10:50:49;;;;;;;7.10;5.07;;;;;;;25.35;70.78;100271.56;4866378;29;20085;-83
2021/07/12 10:53:14;;;;;;;9.00;5.03;;;;;;;25.33;72.18;100269.00;4866823;29;20038;-83
2021/07/12 10:55:41;;;;;;;8.23;4.90;;;;;;;25.22;71.38;100269.94;4866944;29;20029;-83
2021/07/12 10:58:19;;;;;;;6.18;4.57;;;;;;;25.20;70.07;100258.59;4866047;29;20085;-82
2021/07/12 11:00:49;;;;;;;10.68;4.75;;;;;;;27.01;63.48;100260.47;4849527;29;20506;-82
2021/07/12 11:03:37;;;;;;;7.47;4.63;;;;;;;25.84;66.43;100256.75;4866238;29;20021;-83
2021/07/12 11:06:03;;;;;;;9.27;3.95;;;;;;;26.26;65.57;100256.56;4865876;29;20034;-83
2021/07/12 11:08:49;;;;;;;6.93;4.65;;;;;;;25.31;68.32;100252.38;4865518;29;20162;-83
2021/07/12 11:11:20;;;;;;;6.05;4.03;;;;;;;25.54;69.62;100249.56;4867090;29;20539;-82
2021/07/12 11:14:05;;;;;;;8.80;4.07;;;;;;;25.26;70.22;100252.75;4866915;29;20460;-82
2021/07/12 11:16:47;;;;;;;8.70;4.20;;;;;;;26.44;67.98;100251.44;4850167;29;20111;-82
2021/07/12 11:19:19;;;;;;;10.18;4.50;;;;;;;25.48;66.40;100251.78;4867070;29;20033;-83
2021/07/12 11:21:46;;;;;;;7.03;3.63;;;;;;;25.42;66.05;100252.28;4866238;29;20030;-82
2021/07/12 11:24:11;;;;;;;6.30;3.22;;;;;;;25.26;66.74;100249.28;4865587;29;20028;-82
2021/07/12 11:26:42;;;;;;;7.20;3.63;;;;;;;25.16;68.39;100243.06;4849326;29;20033;-82
2021/07/12 11:29:28;;;;;;;6.22;3.40;;;;;;;25.80;64.00;100245.50;4850523;29;20089;-82